Time;durP1;ratioP1;P1;durP2;ratioP2;P2;SDS_P1;SDS_P2;PMS_P1;PMS_P2;Temp;Humidity;BMP_temperature;BMP_pressure;BME280_temperature;BME280_humidity;BME280_pressure;Samples;Min_cycle;Max_cycle;Signal;HPM_P1;HPM_P2
2023/09/02 00:00:00;;;;;;;0.00;0.00;;;14.30;99.90;;;;;;1732131;28;20273;-65
2023/09/02 00:00:52;;;;;;;0.00;0.00;;;14.30;99.90;;;;;;1730664;28;20314;-65
2023/09/02 00:01:43;;;;;;;0.00;0.00;;;14.20;99.90;;;;;;1732040;28;20254;-65
2023/09/02 00:02:34;;;;;;;0.00;0.00;;;14.30;99.90;;;;;;1730816;28;20286;-65
2023/09/02 00:03:26;;;;;;;0.00;0.00;;;14.30;99.90;;;;;;1732131;28;20545;-66
2023/09/02 00:04:18;;;;;;;0.00;0.00;;;14.30;99.90;;;;;;1736073;28;20468;-66
2023/09/02 00:05:10;;;;;;;0.00;0.00;;;14.30;99.90;;;;;;1731379;28;20218;-65
2023/09/02 00:06:01;;;;;;;0.00;0.00;;;14.30;99.90;;;;;;1731182;28;20267;-65
2023/09/02 00:06:52;;;;;;;0.00;0.00;;;14.30;99.90;;;;;;1731849;28;20661;-65
2023/09/02 00:07:44;;;;;;;0.00;0.00;;;14.30;99.90;;;;;;1732279;28;20204;-65
2023/09/02 00:08:35;;;;;;;0.00;0.00;;;14.30;99.90;;;;;;1731770;28;20231;-66
2023/09/02 00:09:25;;;;;;;0.00;0.00;;;14.30;99.90;;;;;;1732258;28;20283;-65
2023/09/02 00:10:17;;;;;;;0.00;0.00;;;14.30;99.90;;;;;;1730129;28;21067;-65
2023/09/02 00:11:08;;;;;;;0.00;0.00;;;14.40;99.90;;;;;;1732359;28;20906;-65
2023/09/02 00:11:59;;;;;;;0.00;0.00;;;14.40;99.90;;;;;;1732222;28;20599;-65
2023/09/02 00:12:51;;;;;;;0.00;0.00;;;14.40;99.90;;;;;;1729283;28;20231;-66
2023/09/02 00:13:42;;;;;;;0.00;0.00;;;14.40;99.90;;;;;;1731498;28;20208;-65
2023/09/02 00:14:33;;;;;;;0.00;0.00;;;14.40;99.90;;;;;;1732102;28;20207;-65
2023/09/02 00:15:25;;;;;;;0.00;0.00;;;14.40;99.90;;;;;;1730126;28;20454;-66
2023/09/02 00:16:17;;;;;;;0.00;0.00;;;14.40;99.90;;;;;;1732243;28;20458;-65
2023/09/02 00:17:07;;;;;;;0.00;0.00;;;14.40;99.90;;;;;;1753763;22;20318;-63
2023/09/02 00:17:59;;;;;;;0.00;0.00;;;14.40;99.90;;;;;;1723865;28;20208;-63
2023/09/02 00:18:51;;;;;;;0.00;0.00;;;14.40;99.90;;;;;;1724377;28;20973;-60
2023/09/02 00:19:44;;;;;;;0.00;0.00;;;14.40;99.90;;;;;;1720701;28;20227;-61
2023/09/02 00:20:35;;;;;;;0.00;0.00;;;14.40;99.90;;;;;;1720470;28;20726;-61
2023/09/02 00:21:26;;;;;;;0.00;0.00;;;14.40;99.90;;;;;;1719172;28;20643;-61
2023/09/02 00:22:18;;;;;;;0.00;0.00;;;14.40;99.90;;;;;;1725345;28;20287;-61
2023/09/02 00:23:08;;;;;;;0.00;0.00;;;14.40;99.90;;;;;;1719291;28;20271;-61
2023/09/02 00:24:05;;;;;;;0.00;0.00;;;14.30;99.90;;;;;;1718067;28;20209;-61
2023/09/02 00:24:56;;;;;;;0.00;0.00;;;14.40;99.90;;;;;;1722786;28;20644;-60
2023/09/02 00:25:47;;;;;;;0.00;0.00;;;14.40;99.90;;;;;;1719180;28;20220;-62
2023/09/02 00:26:38;;;;;;;0.00;0.00;;;14.40;99.90;;;;;;1723610;28;20762;-60
2023/09/02 00:27:29;;;;;;;0.00;0.00;;;14.40;99.90;;;;;;1723576;28;20233;-60
2023/09/02 00:28:20;;;;;;;0.00;0.00;;;14.40;99.90;;;;;;1718720;28;20296;-61
2023/09/02 00:29:12;;;;;;;0.00;0.00;;;14.40;99.90;;;;;;1718501;28;20251;-61
2023/09/02 00:30:04;;;;;;;0.00;0.00;;;14.40;99.90;;;;;;1718405;28;20213;-62
2023/09/02 00:30:54;;;;;;;0.00;0.00;;;14.30;99.90;;;;;;1716999;28;20261;-61
2023/09/02 00:31:46;;;;;;;0.00;0.00;;;14.40;99.90;;;;;;1718176;28;20216;-61
2023/09/02 00:32:37;;;;;;;0.00;0.00;;;14.40;99.90;;;;;;1718519;28;20201;-61
2023/09/02 00:33:28;;;;;;;0.00;0.00;;;;;;;;;;1718425;28;20728;-60
2023/09/02 00:34:20;;;;;;;0.00;0.00;;;14.40;99.90;;;;;;1718543;28;20213;-61
2023/09/02 00:35:12;;;;;;;0.00;0.00;;;14.40;99.90;;;;;;1717552;28;20221;-61
2023/09/02 00:36:03;;;;;;;0.00;0.00;;;14.40;99.90;;;;;;1717511;28;20663;-61
2023/09/02 00:36:55;;;;;;;0.00;0.00;;;14.50;99.90;;;;;;1718559;28;20299;-62
2023/09/02 00:37:46;;;;;;;0.00;0.00;;;14.40;99.90;;;;;;1718479;28;20225;-61
2023/09/02 00:38:37;;;;;;;0.00;0.00;;;14.40;99.90;;;;;;1718051;28;20193;-61
2023/09/02 00:39:29;;;;;;;0.00;0.00;;;14.40;99.90;;;;;;1718594;28;20198;-61
2023/09/02 00:40:22;;;;;;;0.00;0.00;;;14.40;99.90;;;;;;1716890;28;20618;-61
2023/09/02 00:41:18;;;;;;;0.00;0.00;;;14.40;99.90;;;;;;1718660;28;20213;-61
2023/09/02 00:42:12;;;;;;;0.00;0.00;;;14.40;99.90;;;;;;1717990;28;20224;-61
2023/09/02 00:43:04;;;;;;;0.00;0.00;;;14.50;99.90;;;;;;1718317;28;20691;-61
2023/09/02 00:43:55;;;;;;;0.00;0.00;;;14.50;99.90;;;;;;1718119;28;20221;-61
2023/09/02 00:44:48;;;;;;;0.00;0.00;;;14.40;99.90;;;;;;1718208;28;20216;-62
2023/09/02 00:45:39;;;;;;;0.00;0.00;;;14.50;99.90;;;;;;1716687;28;20259;-61
2023/09/02 00:46:30;;;;;;;0.00;0.00;;;14.50;99.90;;;;;;1718079;28;20205;-61
2023/09/02 00:47:22;;;;;;;0.00;0.00;;;14.50;99.90;;;;;;1718090;28;20499;-61
2023/09/02 00:48:13;;;;;;;0.00;0.00;;;14.50;99.90;;;;;;1718395;28;20207;-61
2023/09/02 00:49:05;;;;;;;0.00;0.00;;;14.50;99.90;;;;;;1717836;28;20320;-61
2023/09/02 00:49:57;;;;;;;0.00;0.00;;;14.50;99.90;;;;;;1717851;28;20219;-61
2023/09/02 00:50:50;;;;;;;0.00;0.00;;;14.50;99.90;;;;;;1716441;28;20229;-61
2023/09/02 00:51:41;;;;;;;0.00;0.00;;;14.50;99.90;;;;;;1718494;28;20213;-61
2023/09/02 00:52:34;;;;;;;0.00;0.00;;;14.60;99.90;;;;;;1718198;28;20296;-61
2023/09/02 00:53:25;;;;;;;0.00;0.00;;;;;;;;;;1725431;28;20231;-61
2023/09/02 00:54:17;;;;;;;0.00;0.00;;;;;;;;;;1718538;28;20794;-61
2023/09/02 00:55:08;;;;;;;0.00;0.00;;;;;;;;;;1718097;28;20217;-61
2023/09/02 00:56:00;;;;;;;0.00;0.00;;;;;;;;;;1717000;28;20700;-61
2023/09/02 00:56:52;;;;;;;0.00;0.00;;;;;;;;;;1718002;28;20204;-61
2023/09/02 00:57:45;;;;;;;0.00;0.00;;;14.50;99.90;;;;;;1718132;28;20754;-61
2023/09/02 00:58:35;;;;;;;0.00;0.00;;;14.60;99.90;;;;;;1718094;28;20201;-61
2023/09/02 00:59:27;;;;;;;0.00;0.00;;;14.60;99.90;;;;;;1718552;28;20200;-61
2023/09/02 01:00:20;;;;;;;0.00;0.00;;;14.60;99.90;;;;;;1712815;28;20555;-61
2023/09/02 01:01:11;;;;;;;0.00;0.00;;;14.60;99.90;;;;;;1718139;28;20219;-61
2023/09/02 01:02:05;;;;;;;0.00;0.00;;;14.60;99.90;;;;;;1718195;28;20236;-61
2023/09/02 01:02:58;;;;;;;0.00;0.00;;;14.60;99.90;;;;;;1718240;28;20224;-61
2023/09/02 01:03:50;;;;;;;0.00;0.00;;;14.60;99.90;;;;;;1718165;28;20623;-61
2023/09/02 01:04:40;;;;;;;0.00;0.00;;;14.50;99.90;;;;;;1718332;28;20223;-61
2023/09/02 01:05:32;;;;;;;0.00;0.00;;;14.60;99.90;;;;;;1716288;28;20352;-61
2023/09/02 01:06:26;;;;;;;0.00;0.00;;;14.60;99.90;;;;;;1718513;28;20215;-61
2023/09/02 01:07:18;;;;;;;0.00;0.00;;;14.50;99.90;;;;;;1717759;28;20244;-61
2023/09/02 01:08:11;;;;;;;0.00;0.00;;;14.60;99.90;;;;;;1718243;28;20223;-61
2023/09/02 01:09:04;;;;;;;0.00;0.00;;;14.60;99.90;;;;;;1718036;28;20232;-62
2023/09/02 01:09:55;;;;;;;0.00;0.00;;;14.60;99.90;;;;;;1718295;28;20225;-62
2023/09/02 01:10:47;;;;;;;0.00;0.00;;;14.60;99.90;;;;;;1716638;28;20248;-61
2023/09/02 01:11:39;;;;;;;0.00;0.00;;;14.60;99.90;;;;;;1718252;28;20201;-61
2023/09/02 01:12:31;;;;;;;0.00;0.00;;;14.60;99.90;;;;;;1718032;28;20201;-61
2023/09/02 01:13:23;;;;;;;0.00;0.00;;;14.60;99.90;;;;;;1718338;28;20209;-62
2023/09/02 01:14:14;;;;;;;0.00;0.00;;;14.60;99.90;;;;;;1718852;28;20209;-61
2023/09/02 01:15:06;;;;;;;0.00;0.00;;;14.60;99.90;;;;;;1718092;28;20244;-61
2023/09/02 01:15:58;;;;;;;0.00;0.00;;;14.60;99.90;;;;;;1716568;28;20240;-61
2023/09/02 01:16:49;;;;;;;0.00;0.00;;;14.50;99.90;;;;;;1717917;28;20225;-61
2023/09/02 01:17:39;;;;;;;0.00;0.00;;;14.60;99.90;;;;;;1717725;28;20355;-61
2023/09/02 01:18:33;;;;;;;0.00;0.00;;;14.60;99.90;;;;;;1718064;28;20212;-60
2023/09/02 01:19:24;;;;;;;0.00;0.00;;;14.50;99.90;;;;;;1718297;28;20382;-61
2023/09/02 01:20:18;;;;;;;0.00;0.00;;;14.60;99.90;;;;;;1716241;28;20275;-60
2023/09/02 01:21:32;;;;;;;0.00;0.00;;;14.50;99.90;;;;;;1718214;28;20209;-61
2023/09/02 01:22:55;;;;;;;0.00;0.00;;;14.60;99.90;;;;;;1717155;28;20643;-61
2023/09/02 01:24:12;;;;;;;0.00;0.00;;;14.60;99.90;;;;;;1714431;28;20208;-61
2023/09/02 01:25:31;;;;;;;0.00;0.00;;;14.60;99.90;;;;;;1709528;28;20228;-61
2023/09/02 01:26:59;;;;;;;0.00;0.00;;;14.60;99.90;;;;;;1715733;28;20319;-61
2023/09/02 01:27:52;;;;;;;0.00;0.00;;;14.60;99.90;;;;;;1714751;28;20217;-61
2023/09/02 01:28:47;;;;;;;0.00;0.00;;;14.50;99.90;;;;;;1717886;28;20664;-61
2023/09/02 01:29:43;;;;;;;0.00;0.00;;;14.60;99.90;;;;;;1718316;28;20213;-61
2023/09/02 01:30:36;;;;;;;0.00;0.00;;;14.60;99.90;;;;;;1716353;28;20335;-60
2023/09/02 01:31:29;;;;;;;0.00;0.00;;;14.60;99.90;;;;;;1718588;28;20204;-61
2023/09/02 01:32:22;;;;;;;0.00;0.00;;;14.60;99.90;;;;;;1716661;28;20616;-61
2023/09/02 01:33:16;;;;;;;0.00;0.00;;;14.60;99.90;;;;;;1718329;28;20208;-61
2023/09/02 01:34:09;;;;;;;0.00;0.00;;;14.60;99.90;;;;;;1717889;28;20217;-61
2023/09/02 01:35:04;;;;;;;0.00;0.00;;;14.60;99.90;;;;;;1715713;28;20567;-61
2023/09/02 01:35:59;;;;;;;0.00;0.00;;;14.60;99.90;;;;;;1716543;28;20240;-61
2023/09/02 01:36:52;;;;;;;0.00;0.00;;;14.60;99.90;;;;;;1717561;28;20509;-61
2023/09/02 01:37:48;;;;;;;0.00;0.00;;;14.60;99.90;;;;;;1717965;28;20225;-61
2023/09/02 01:38:41;;;;;;;0.00;0.00;;;14.60;99.90;;;;;;1717778;28;20218;-61
2023/09/02 01:39:33;;;;;;;0.00;0.00;;;14.60;99.90;;;;;;1718069;28;20293;-61
2023/09/02 01:40:26;;;;;;;0.00;0.00;;;14.60;99.90;;;;;;1714705;28;20204;-61
2023/09/02 01:41:19;;;;;;;0.00;0.00;;;14.60;99.90;;;;;;1718254;28;20711;-60
2023/09/02 01:42:12;;;;;;;0.00;0.00;;;14.60;99.90;;;;;;1718083;28;20697;-61
2023/09/02 01:43:05;;;;;;;0.00;0.00;;;14.60;99.90;;;;;;1717739;28;20626;-61
2023/09/02 01:43:56;;;;;;;0.00;0.00;;;14.60;99.90;;;;;;1717854;28;20216;-60
2023/09/02 01:44:49;;;;;;;0.00;0.00;;;14.60;99.90;;;;;;1718074;28;20204;-61
2023/09/02 01:45:40;;;;;;;0.00;0.00;;;14.60;99.90;;;;;;1716260;28;20611;-62
2023/09/02 01:46:31;;;;;;;0.00;0.00;;;14.60;99.90;;;;;;1718123;28;20303;-61
2023/09/02 01:47:23;;;;;;;0.00;0.00;;;14.60;99.90;;;;;;1716543;28;21021;-61
2023/09/02 01:48:16;;;;;;;0.00;0.00;;;14.60;99.90;;;;;;1718143;28;20403;-61
2023/09/02 01:49:08;;;;;;;0.00;0.00;;;14.60;99.90;;;;;;1717487;28;20300;-61
2023/09/02 01:49:59;;;;;;;0.00;0.00;;;14.60;99.90;;;;;;1718010;28;20219;-61
2023/09/02 01:50:52;;;;;;;0.00;0.00;;;;;;;;;;1716118;28;20243;-61
2023/09/02 01:51:43;;;;;;;0.00;0.00;;;;;;;;;;1718095;28;20681;-60
2023/09/02 01:52:35;;;;;;;0.00;0.00;;;;;;;;;;1718026;28;20695;-60
2023/09/02 01:53:28;;;;;;;0.00;0.00;;;;;;;;;;1718361;28;20205;-61
2023/09/02 01:54:19;;;;;;;0.00;0.00;;;;;;;;;;1718194;28;20244;-61
2023/09/02 01:55:10;;;;;;;0.00;0.00;;;;;;;;;;1717213;28;20209;-60
2023/09/02 01:56:03;;;;;;;0.00;0.00;;;;;;;;;;1717104;28;20318;-62
2023/09/02 01:56:54;;;;;;;0.00;0.00;;;;;;;;;;1717996;28;20221;-61
2023/09/02 01:57:47;;;;;;;0.00;0.00;;;;;;;;;;1714156;28;20252;-61
2023/09/02 01:58:39;;;;;;;0.00;0.00;;;;;;;;;;1717942;28;20498;-61
2023/09/02 01:59:30;;;;;;;0.00;0.00;;;;;;;;;;1718336;28;20751;-61
2023/09/02 02:00:21;;;;;;;0.00;0.00;;;;;;;;;;1716417;28;20622;-61
2023/09/02 02:01:14;;;;;;;0.00;0.00;;;;;;;;;;1717963;28;20213;-61
2023/09/02 02:02:05;;;;;;;0.00;0.00;;;;;;;;;;1717975;28;20223;-61
2023/09/02 02:02:56;;;;;;;0.00;0.00;;;14.60;99.90;;;;;;1718217;28;20300;-61
2023/09/02 02:03:55;;;;;;;0.00;0.00;;;14.50;99.90;;;;;;1717966;28;20220;-61
2023/09/02 02:04:51;;;;;;;0.00;0.00;;;14.50;99.90;;;;;;1718233;28;20467;-62
2023/09/02 02:05:51;;;;;;;0.00;0.00;;;14.50;99.90;;;;;;1716182;28;20707;-61
2023/09/02 02:06:43;;;;;;;0.00;0.00;;;14.50;99.90;;;;;;1718121;28;20251;-61
2023/09/02 02:07:38;;;;;;;0.00;0.00;;;14.50;99.90;;;;;;1717892;28;20250;-61
2023/09/02 02:08:39;;;;;;;0.00;0.00;;;14.50;99.90;;;;;;1718503;28;20205;-61
2023/09/02 02:09:34;;;;;;;0.00;0.00;;;14.40;99.90;;;;;;1715457;28;20225;-61
2023/09/02 02:10:29;;;;;;;0.00;0.00;;;14.40;99.90;;;;;;1713452;28;21683;-61
2023/09/02 02:11:22;;;;;;;0.00;0.00;;;14.40;99.90;;;;;;1718467;28;20562;-61
2023/09/02 02:12:13;;;;;;;0.00;0.00;;;;;;;;;;1718110;28;20219;-61
2023/09/02 02:13:06;;;;;;;0.00;0.00;;;;;;;;;;1718303;28;20623;-61
2023/09/02 02:14:01;;;;;;;0.00;0.00;;;;;;;;;;1717961;28;20220;-61
2023/09/02 02:14:52;;;;;;;0.00;0.00;;;;;;;;;;1718588;28;20744;-61
2023/09/02 02:15:44;;;;;;;0.00;0.00;;;14.40;99.90;;;;;;1716420;28;20264;-61
2023/09/02 02:16:36;;;;;;;0.00;0.00;;;;;;;;;;1718272;28;20220;-60
2023/09/02 02:17:28;;;;;;;0.00;0.00;;;;;;;;;;1718169;28;20248;-61
2023/09/02 02:18:20;;;;;;;0.00;0.00;;;;;;;;;;1718196;28;20565;-61
2023/09/02 02:19:11;;;;;;;0.00;0.00;;;;;;;;;;1718234;28;20224;-61
2023/09/02 02:20:03;;;;;;;0.00;0.00;;;;;;;;;;1718026;28;20212;-61
2023/09/02 02:20:59;;;;;;;0.00;0.00;;;14.30;99.90;;;;;;1716500;28;21828;-61
2023/09/02 02:21:50;;;;;;;0.00;0.00;;;14.40;99.90;;;;;;1718046;28;20212;-61
2023/09/02 02:22:41;;;;;;;0.00;0.00;;;14.40;99.90;;;;;;1718174;28;20205;-60
2023/09/02 02:23:33;;;;;;;0.00;0.00;;;14.40;99.90;;;;;;1718383;28;20474;-61
2023/09/02 02:24:24;;;;;;;0.00;0.00;;;14.40;99.90;;;;;;1718461;28;20216;-61
2023/09/02 02:25:15;;;;;;;0.00;0.00;;;14.40;99.90;;;;;;1716918;28;20247;-61
2023/09/02 02:26:06;;;;;;;0.00;0.00;;;14.40;99.90;;;;;;1718026;28;20243;-61
2023/09/02 02:26:57;;;;;;;0.00;0.00;;;14.40;99.90;;;;;;1717801;28;20220;-61
2023/09/02 02:27:49;;;;;;;0.00;0.00;;;14.30;99.90;;;;;;1718156;28;20471;-61
2023/09/02 02:28:41;;;;;;;0.00;0.00;;;14.30;99.90;;;;;;1717695;28;20197;-61
2023/09/02 02:29:34;;;;;;;0.00;0.00;;;14.30;99.90;;;;;;1718571;28;20986;-61
2023/09/02 02:30:24;;;;;;;0.00;0.00;;;14.30;99.90;;;;;;1716792;28;20307;-61
2023/09/02 02:31:15;;;;;;;0.00;0.00;;;14.30;99.90;;;;;;1718008;28;20213;-60
2023/09/02 02:32:07;;;;;;;0.00;0.00;;;14.30;99.90;;;;;;1717943;28;20676;-61
2023/09/02 02:32:59;;;;;;;0.00;0.00;;;14.30;99.90;;;;;;1717971;28;20216;-61
2023/09/02 02:33:49;;;;;;;0.00;0.00;;;14.30;99.90;;;;;;1717674;28;20197;-61
2023/09/02 02:34:41;;;;;;;0.00;0.00;;;14.30;99.90;;;;;;1717712;28;20213;-61
2023/09/02 02:35:32;;;;;;;0.00;0.00;;;14.30;99.90;;;;;;1716537;28;20237;-60
2023/09/02 02:36:23;;;;;;;0.00;0.00;;;;;;;;;;1717826;28;20240;-60
2023/09/02 02:37:15;;;;;;;0.00;0.00;;;14.40;99.90;;;;;;1717483;28;20213;-61
2023/09/02 02:38:06;;;;;;;0.00;0.00;;;14.40;99.90;;;;;;1717914;28;20596;-60
2023/09/02 02:38:56;;;;;;;0.00;0.00;;;14.40;99.90;;;;;;1718052;28;20227;-60
2023/09/02 02:39:48;;;;;;;0.00;0.00;;;14.40;99.90;;;;;;1719252;28;20201;-60
2023/09/02 02:40:40;;;;;;;0.00;0.00;;;14.40;99.90;;;;;;1717663;28;20613;-61
2023/09/02 02:41:32;;;;;;;0.00;0.00;;;14.30;99.90;;;;;;1717023;28;20291;-61
2023/09/02 02:42:22;;;;;;;0.00;0.00;;;14.30;99.90;;;;;;1718709;28;20212;-60
2023/09/02 02:43:13;;;;;;;0.00;0.00;;;14.30;99.90;;;;;;1719068;28;20296;-61
2023/09/02 02:44:07;;;;;;;0.00;0.00;;;14.30;99.90;;;;;;1719091;28;20213;-61
2023/09/02 02:44:58;;;;;;;0.00;0.00;;;14.20;99.90;;;;;;1719399;28;20231;-61
2023/09/02 02:45:48;;;;;;;0.00;0.00;;;14.20;99.90;;;;;;1717325;28;20319;-61
2023/09/02 02:46:40;;;;;;;0.00;0.00;;;14.20;99.90;;;;;;1719089;28;20291;-62
2023/09/02 02:47:31;;;;;;;0.00;0.00;;;14.20;99.90;;;;;;1718940;28;20228;-61
2023/09/02 02:48:26;;;;;;;0.00;0.00;;;14.20;99.90;;;;;;1719007;28;20375;-62
2023/09/02 02:49:17;;;;;;;0.00;0.00;;;14.20;99.90;;;;;;1718631;28;20204;-61
2023/09/02 02:50:09;;;;;;;0.00;0.00;;;14.20;99.90;;;;;;1716422;28;20646;-62
2023/09/02 02:51:00;;;;;;;0.00;0.00;;;14.20;99.90;;;;;;1718346;28;20672;-61
2023/09/02 02:51:51;;;;;;;0.00;0.00;;;14.20;99.90;;;;;;1719069;28;20231;-61
2023/09/02 02:52:42;;;;;;;0.00;0.00;;;14.20;99.90;;;;;;1719797;28;20216;-61
2023/09/02 02:53:34;;;;;;;0.00;0.00;;;14.20;99.90;;;;;;1719126;28;20312;-61
2023/09/02 02:54:25;;;;;;;0.00;0.00;;;14.20;99.90;;;;;;1719154;28;20509;-61
2023/09/02 02:55:16;;;;;;;0.00;0.00;;;14.20;99.90;;;;;;1718302;28;20509;-61
2023/09/02 02:56:07;;;;;;;0.00;0.00;;;14.20;99.90;;;;;;1718125;28;20229;-61
2023/09/02 02:56:59;;;;;;;0.00;0.00;;;14.20;99.90;;;;;;1718802;28;20291;-61
2023/09/02 02:57:50;;;;;;;0.00;0.00;;;14.10;99.90;;;;;;1718875;28;20216;-61
2023/09/02 02:58:40;;;;;;;0.00;0.00;;;14.10;99.90;;;;;;1720737;28;20208;-60
2023/09/02 02:59:33;;;;;;;0.00;0.00;;;14.10;99.90;;;;;;1719401;28;20584;-61
2023/09/02 03:00:24;;;;;;;0.00;0.00;;;14.10;99.90;;;;;;1717182;28;20213;-61
2023/09/02 03:01:16;;;;;;;0.00;0.00;;;14.10;99.90;;;;;;1719217;28;20304;-61
2023/09/02 03:02:07;;;;;;;0.00;0.00;;;14.10;99.90;;;;;;1718762;28;20236;-61
2023/09/02 03:02:57;;;;;;;0.00;0.00;;;14.10;99.90;;;;;;1719248;28;20291;-61
2023/09/02 03:03:49;;;;;;;0.00;0.00;;;14.10;99.90;;;;;;1718682;28;20201;-61
2023/09/02 03:04:40;;;;;;;0.00;0.00;;;14.10;99.90;;;;;;1719081;28;20684;-60
2023/09/02 03:05:35;;;;;;;0.00;0.00;;;14.10;99.90;;;;;;1717806;28;20275;-62
2023/09/02 03:06:27;;;;;;;0.00;0.00;;;14.10;99.90;;;;;;1718901;28;20590;-61
2023/09/02 03:07:18;;;;;;;0.00;0.00;;;14.00;99.90;;;;;;1718937;28;20256;-61
2023/09/02 03:08:09;;;;;;;0.00;0.00;;;14.10;99.90;;;;;;1719067;28;20205;-61
2023/09/02 03:09:02;;;;;;;0.00;0.00;;;14.00;99.90;;;;;;1718782;28;20660;-61
2023/09/02 03:09:53;;;;;;;0.00;0.00;;;14.10;99.90;;;;;;1718945;28;20584;-61
2023/09/02 03:10:44;;;;;;;0.00;0.00;;;14.10;99.90;;;;;;1717155;28;20237;-61
2023/09/02 03:11:35;;;;;;;0.00;0.00;;;14.10;99.90;;;;;;1719507;28;20220;-61
2023/09/02 03:12:26;;;;;;;0.00;0.00;;;14.10;99.90;;;;;;1718621;28;20235;-61
2023/09/02 03:13:17;;;;;;;0.00;0.00;;;14.10;99.90;;;;;;1719028;28;20291;-61
2023/09/02 03:14:09;;;;;;;0.00;0.00;;;14.10;99.90;;;;;;1718678;28;20475;-61
2023/09/02 03:15:01;;;;;;;0.00;0.00;;;14.20;99.90;;;;;;1719126;28;20256;-61
2023/09/02 03:15:53;;;;;;;0.00;0.00;;;14.20;99.90;;;;;;1717299;28;20264;-61
2023/09/02 03:16:45;;;;;;;0.00;0.00;;;14.20;99.90;;;;;;1718458;28;20748;-61
2023/09/02 03:17:36;;;;;;;0.00;0.00;;;14.20;99.90;;;;;;1718904;28;20704;-61
2023/09/02 03:18:27;;;;;;;0.00;0.00;;;14.20;99.90;;;;;;1718603;28;20643;-61
2023/09/02 03:19:19;;;;;;;0.00;0.00;;;14.20;99.90;;;;;;1718629;28;20209;-61
2023/09/02 03:20:10;;;;;;;0.00;0.00;;;14.20;99.90;;;;;;1718748;28;20213;-61
2023/09/02 03:21:02;;;;;;;0.00;0.00;;;14.20;99.90;;;;;;1717222;28;20783;-61
2023/09/02 03:21:54;;;;;;;0.00;0.00;;;14.30;99.90;;;;;;1718669;28;20208;-61
2023/09/02 03:22:45;;;;;;;0.00;0.00;;;14.30;99.90;;;;;;1718756;28;20220;-62
2023/09/02 03:23:36;;;;;;;0.00;0.00;;;14.30;99.90;;;;;;1719100;28;20228;-62
2023/09/02 03:24:27;;;;;;;0.00;0.00;;;14.30;99.90;;;;;;1718878;28;20224;-61
2023/09/02 03:25:19;;;;;;;0.00;0.00;;;14.30;99.90;;;;;;1717135;28;20209;-61
2023/09/02 03:26:10;;;;;;;0.00;0.00;;;14.30;99.90;;;;;;1718858;28;20209;-61
2023/09/02 03:27:03;;;;;;;0.00;0.00;;;14.30;99.90;;;;;;1718396;28;20216;-61
2023/09/02 03:27:55;;;;;;;0.00;0.00;;;14.30;99.90;;;;;;1718913;28;20281;-61
2023/09/02 03:28:45;;;;;;;0.00;0.00;;;14.30;99.90;;;;;;1718557;28;20223;-61
2023/09/02 03:29:36;;;;;;;0.00;0.00;;;14.20;99.90;;;;;;1719340;28;20328;-61
2023/09/02 03:30:29;;;;;;;0.00;0.00;;;14.20;99.90;;;;;;1717315;28;20213;-61
2023/09/02 03:31:20;;;;;;;0.00;0.00;;;14.20;99.90;;;;;;1718728;28;20517;-62
2023/09/02 03:32:12;;;;;;;0.00;0.00;;;14.20;99.90;;;;;;1718794;28;20208;-61
2023/09/02 03:33:03;;;;;;;0.00;0.00;;;14.20;99.90;;;;;;1719108;28;20636;-61
2023/09/02 03:33:54;;;;;;;0.00;0.00;;;14.20;99.90;;;;;;1718566;28;20203;-61
2023/09/02 03:34:45;;;;;;;0.00;0.00;;;14.20;99.90;;;;;;1718995;28;20209;-61
2023/09/02 03:35:38;;;;;;;0.00;0.00;;;14.20;99.90;;;;;;1717748;28;20775;-61
2023/09/02 03:36:29;;;;;;;0.00;0.00;;;14.20;99.90;;;;;;1719259;28;20201;-61
2023/09/02 03:37:21;;;;;;;0.00;0.00;;;14.20;99.90;;;;;;1718877;28;20687;-62
2023/09/02 03:38:11;;;;;;;0.00;0.00;;;14.20;99.90;;;;;;1719162;28;20288;-61
2023/09/02 03:39:03;;;;;;;0.00;0.00;;;14.20;99.90;;;;;;1718775;28;20676;-61
2023/09/02 03:39:54;;;;;;;0.00;0.00;;;14.20;99.90;;;;;;1719010;28;20332;-61
2023/09/02 03:40:46;;;;;;;0.00;0.00;;;14.30;99.90;;;;;;1717572;28;20229;-61
2023/09/02 03:41:37;;;;;;;0.00;0.00;;;14.30;99.90;;;;;;1719467;28;20211;-61
2023/09/02 03:42:29;;;;;;;0.00;0.00;;;14.30;99.90;;;;;;1718553;28;20235;-61
2023/09/02 03:43:19;;;;;;;0.00;0.00;;;14.30;99.90;;;;;;1718940;28;21195;-61
2023/09/02 03:44:11;;;;;;;0.00;0.00;;;14.30;99.90;;;;;;1718568;28;20287;-61
2023/09/02 03:45:02;;;;;;;0.00;0.00;;;14.30;99.90;;;;;;1718956;28;20228;-61
2023/09/02 03:45:57;;;;;;;0.00;0.00;;;14.30;99.90;;;;;;1717594;28;20232;-61
2023/09/02 03:46:48;;;;;;;0.00;0.00;;;14.30;99.90;;;;;;1718503;28;20228;-61
2023/09/02 03:47:39;;;;;;;0.00;0.00;;;14.30;99.90;;;;;;1719122;28;20315;-61
2023/09/02 03:48:31;;;;;;;0.00;0.00;;;14.30;99.90;;;;;;1718551;28;20201;-61
2023/09/02 03:49:21;;;;;;;0.00;0.00;;;14.20;99.90;;;;;;1718701;28;20297;-61
2023/09/02 03:50:13;;;;;;;0.00;0.00;;;14.20;99.90;;;;;;1718114;28;20275;-61
2023/09/02 03:51:05;;;;;;;0.00;0.00;;;14.20;99.90;;;;;;1717251;28;20315;-61
2023/09/02 03:51:57;;;;;;;0.00;0.00;;;14.20;99.90;;;;;;1718856;28;20208;-59
2023/09/02 03:52:47;;;;;;;0.00;0.00;;;14.20;99.90;;;;;;1720235;28;20284;-61
2023/09/02 03:53:38;;;;;;;0.00;0.00;;;14.20;99.90;;;;;;1719194;28;20209;-61
2023/09/02 03:54:30;;;;;;;0.00;0.00;;;14.20;99.90;;;;;;1718894;28;20208;-61
2023/09/02 03:55:21;;;;;;;0.00;0.00;;;14.20;99.90;;;;;;1717552;28;20503;-61
2023/09/02 03:56:11;;;;;;;0.00;0.00;;;14.20;99.90;;;;;;1718918;28;20209;-61
2023/09/02 03:57:05;;;;;;;0.00;0.00;;;14.20;99.90;;;;;;1721182;28;20212;-61
2023/09/02 03:57:56;;;;;;;0.00;0.00;;;14.20;99.90;;;;;;1723506;28;20207;-61
2023/09/02 03:58:46;;;;;;;0.00;0.00;;;14.20;99.90;;;;;;1718534;28;20193;-61
2023/09/02 03:59:38;;;;;;;0.00;0.00;;;14.20;99.90;;;;;;1719319;28;20201;-60
2023/09/02 04:00:29;;;;;;;0.00;0.00;;;14.20;99.90;;;;;;1717507;28;20297;-61
2023/09/02 04:01:21;;;;;;;0.00;0.00;;;14.20;99.90;;;;;;1718806;28;20209;-61
2023/09/02 04:02:13;;;;;;;0.00;0.00;;;14.20;99.90;;;;;;1718796;28;20209;-61
2023/09/02 04:03:04;;;;;;;0.00;0.00;;;14.20;99.90;;;;;;1718821;28;20274;-61
2023/09/02 04:03:56;;;;;;;0.00;0.00;;;14.20;99.90;;;;;;1718844;28;20209;-61
2023/09/02 04:04:46;;;;;;;0.00;0.00;;;14.20;99.90;;;;;;1718864;28;20943;-61
2023/09/02 04:05:37;;;;;;;0.00;0.00;;;14.20;99.90;;;;;;1717825;28;20586;-61
2023/09/02 04:06:29;;;;;;;0.00;0.00;;;14.20;99.90;;;;;;1725080;28;20875;-61
2023/09/02 04:07:19;;;;;;;0.00;0.00;;;14.20;99.90;;;;;;1719870;28;20324;-61
2023/09/02 04:08:10;;;;;;;0.00;0.00;;;14.30;99.90;;;;;;1718988;28;20204;-61
2023/09/02 04:09:02;;;;;;;0.00;0.00;;;14.20;99.90;;;;;;1718444;28;20733;-61
2023/09/02 04:09:54;;;;;;;0.00;0.00;;;14.30;99.90;;;;;;1718915;28;20554;-61
2023/09/02 04:10:50;;;;;;;0.00;0.00;;;14.30;99.90;;;;;;1717363;28;20937;-61
2023/09/02 04:11:42;;;;;;;0.00;0.00;;;14.30;99.90;;;;;;1719174;28;20672;-60
2023/09/02 04:12:34;;;;;;;0.00;0.00;;;14.30;99.90;;;;;;1718621;28;20233;-61
2023/09/02 04:13:26;;;;;;;0.00;0.00;;;14.30;99.90;;;;;;1718477;28;20769;-61
2023/09/02 04:14:17;;;;;;;0.00;0.00;;;14.30;99.90;;;;;;1717901;28;20643;-61
2023/09/02 04:15:09;;;;;;;0.00;0.00;;;14.30;99.90;;;;;;1718736;28;20215;-61
2023/09/02 04:16:00;;;;;;;0.00;0.00;;;14.30;99.90;;;;;;1717397;28;20312;-61
2023/09/02 04:16:54;;;;;;;0.00;0.00;;;14.30;99.90;;;;;;1718582;28;20372;-61
2023/09/02 04:17:45;;;;;;;0.00;0.00;;;14.30;99.90;;;;;;1718187;28;20351;-61
2023/09/02 04:18:36;;;;;;;0.00;0.00;;;14.30;99.90;;;;;;1718786;28;20193;-60
2023/09/02 04:19:27;;;;;;;0.00;0.00;;;14.30;99.90;;;;;;1718434;28;20563;-61
2023/09/02 04:20:18;;;;;;;0.00;0.00;;;14.30;99.90;;;;;;1717352;28;20313;-61
2023/09/02 04:21:10;;;;;;;0.00;0.00;;;14.30;99.90;;;;;;1718663;28;20263;-60
2023/09/02 04:22:00;;;;;;;0.00;0.00;;;14.30;99.90;;;;;;1718281;28;20270;-60
2023/09/02 04:22:51;;;;;;;0.00;0.00;;;14.30;99.90;;;;;;1718780;28;20201;-61
2023/09/02 04:23:43;;;;;;;0.00;0.00;;;14.30;99.90;;;;;;1718617;28;20429;-61
2023/09/02 04:24:33;;;;;;;0.00;0.00;;;14.30;99.90;;;;;;1716723;28;20216;-60
2023/09/02 04:25:24;;;;;;;0.00;0.00;;;14.30;99.90;;;;;;1717502;28;20296;-60
2023/09/02 04:26:21;;;;;;;0.00;0.00;;;14.30;99.90;;;;;;1718370;28;20209;-61
2023/09/02 04:27:11;;;;;;;0.00;0.00;;;14.30;99.90;;;;;;1718401;28;20213;-61
2023/09/02 04:28:02;;;;;;;0.00;0.00;;;14.30;99.90;;;;;;1718506;28;20213;-61
2023/09/02 04:28:55;;;;;;;0.00;0.00;;;14.30;99.90;;;;;;1718533;28;20200;-61
2023/09/02 04:29:46;;;;;;;0.00;0.00;;;14.40;99.90;;;;;;1718587;28;20270;-61
2023/09/02 04:30:36;;;;;;;0.00;0.00;;;14.40;99.90;;;;;;1717723;28;20264;-61
2023/09/02 04:31:28;;;;;;;0.00;0.00;;;14.40;99.90;;;;;;1718891;28;20212;-61
2023/09/02 04:32:20;;;;;;;0.00;0.00;;;14.40;99.90;;;;;;1718345;28;20308;-61
2023/09/02 04:33:12;;;;;;;0.00;0.00;;;14.30;99.90;;;;;;1718865;28;20591;-61
2023/09/02 04:34:03;;;;;;;0.00;0.00;;;14.40;99.90;;;;;;1718315;28;20604;-61
2023/09/02 04:34:56;;;;;;;0.00;0.00;;;14.40;99.90;;;;;;1718853;28;20239;-60